Main page
METAR-TAF:

METAR-TAF

Airports :

Fujairah International Airport

Fujairah, United Arab Emirates

latitude: 25-06N, longitude: 056-20E, elevation: 28 m

Current weather observation

The report was made 1 hour and 8 minutes ago, at 07:00 UTC
Wind 6 kt from the East, varying between East/Northeast and South/Southeast
Temperature 23°C
Humidity 69%
Pressure 1014 hPa
Visibility: 8000 m

METAR: OMFJ 080700Z 10006KT 070V150 8000 NSC 23/17 Q1014 A2995

Time: 12:08 (08:08 UTC)

Forecast

The report was made 3 hours and 8 minutes ago, at 05:00 UTC
Forecast valid from 08 at 06 UTC to 09 at 12 UTC
Wind 8 kt from the West/Northwest
Visibility: 8000 m
Becoming
from 08 at 10 UTC to 08 at 12 UTC
Wind 15 kt from the West/Northwest
Probability 30% :
Temporary
from 08 at 12 UTC to 09 at 12 UTC
Wind 20 kt from the West/Northwest with gusts up to 32 kt
Visibility: 3000 m
Blowing dust

TAF: OMFJ 080500Z 0806/0912 29008KT 8000 NSC BECMG 0810/0812 30015KT PROB30 TEMPO 0812/0912 30020G32KT 3000 BLDU

Weather observations and forecasts of more than 4000 airports (METAR and TAF reports).

The available stations are represented by yellow and red dots on the map.

Hover mouse over dot to see the name of the station.

Then click to see weather observations and forecasts.

To change the map : click on the green buttons with a black cross to zoom in, on the green button with a dash to zoom out, or on the green arrows for adjacent maps.


METAR-TAF: